Portada
METAR-TAF:

METAR-TAF

Aeroports :

Ilam, Iran

latitud: 33-35-09N, longitud: 046-24-20E, altitud: 1334 m

Observació

L'informe es va fer fa 13 minuts, a les 01:00 UTC
Vent 4 kt del Est/Sud-Est
Temperatura 3°C
Humitat 93%
Pressió 1014 hPa
Visibilitat 10 km o més
sense núvols per sota de 1500 mi sense presència de cumulonimbus.

METAR: OICI 300100Z 11004KT CAVOK 03/02 Q1013 A2993

Hora: 05:43 (01:13 UTC)

Pronòstic

L'informe es va fer fa 7 hores i 23 minuts, a les 17:50 UTC
Pronòstic vàlid del 29 a les 18 UTC al 30 a les 24 UTC
Vent 6 kt del Oest/Sud-Oest
Visibilitat: 7000 m
Escasses núvols a una alçada de 3000 ft
Temporalment
l' 30 a les 10 UTC al 30 a les 15 UTC
Vent 16 kt del Sud-Oest
Escasses núvols a una alçada de 3000 ft, Cumulonimbus.
Cel ennuvolat a una alçada de 4000 ft
xàfecs de pluja

TAF: OICI 291750Z 2918/3024 24006KT 7000 FEW030 TEMPO 3010/3015 23016KT SHRA FEW030CB BKN040

Observacions i pronòstics meteorològics de més de 4000 aeroports (METAR i TAF).

Les estacions disponibles són els punts grocs i vermells al mapa.

Posi el ratolí al punt desitjat per veure el nom de l'estació.

Feu clic per veure les observacions i els pronòstics meteorològics.

Per canviar el mapa: feu clic els botons verds amb una creu de color negre per apropar; al botó verd amb un guió per allunyar la imatge; o en les fletxes verdes per a mapes adjacents.


METAR-TAF: